sensor_id;sensor_type;location;lat;lon;timestamp;P1;durP1;ratioP1;P2;durP2;ratioP2
261;SDS011;114;48.260;10.988;2022-07-05T00:02:13;6.30;;;5.60;;
261;SDS011;114;48.260;10.988;2022-07-05T00:04:39;8.00;;;5.10;;
261;SDS011;114;48.260;10.988;2022-07-05T00:07:04;8.70;;;5.20;;
261;SDS011;114;48.260;10.988;2022-07-05T00:09:50;12.73;;;5.13;;
261;SDS011;114;48.260;10.988;2022-07-05T00:12:18;8.30;;;5.10;;
261;SDS011;114;48.260;10.988;2022-07-05T00:14:49;6.90;;;4.57;;
261;SDS011;114;48.260;10.988;2022-07-05T00:17:15;4.97;;;4.57;;
261;SDS011;114;48.260;10.988;2022-07-05T00:19:41;9.17;;;4.90;;
261;SDS011;114;48.260;10.988;2022-07-05T00:22:07;6.90;;;5.00;;
261;SDS011;114;48.260;10.988;2022-07-05T00:24:33;6.03;;;4.70;;
261;SDS011;114;48.260;10.988;2022-07-05T00:27:00;8.83;;;5.07;;
261;SDS011;114;48.260;10.988;2022-07-05T00:29:27;5.53;;;4.63;;
261;SDS011;114;48.260;10.988;2022-07-05T00:31:53;8.80;;;4.30;;
261;SDS011;114;48.260;10.988;2022-07-05T00:34:18;5.47;;;4.50;;
261;SDS011;114;48.260;10.988;2022-07-05T00:36:44;9.70;;;4.07;;
261;SDS011;114;48.260;10.988;2022-07-05T00:39:10;6.83;;;4.37;;
261;SDS011;114;48.260;10.988;2022-07-05T00:41:36;9.23;;;4.13;;
261;SDS011;114;48.260;10.988;2022-07-05T00:44:06;7.03;;;4.67;;
261;SDS011;114;48.260;10.988;2022-07-05T00:46:36;8.83;;;5.33;;
261;SDS011;114;48.260;10.988;2022-07-05T00:49:03;19.70;;;6.17;;
261;SDS011;114;48.260;10.988;2022-07-05T00:51:31;6.90;;;4.67;;
261;SDS011;114;48.260;10.988;2022-07-05T00:53:58;5.47;;;4.63;;
261;SDS011;114;48.260;10.988;2022-07-05T00:56:24;6.43;;;3.90;;
261;SDS011;114;48.260;10.988;2022-07-05T00:58:51;4.80;;;4.40;;
261;SDS011;114;48.260;10.988;2022-07-05T01:01:18;9.83;;;4.43;;
261;SDS011;114;48.260;10.988;2022-07-05T01:03:44;4.90;;;4.10;;
261;SDS011;114;48.260;10.988;2022-07-05T01:06:12;4.87;;;4.03;;
261;SDS011;114;48.260;10.988;2022-07-05T01:08:39;7.60;;;3.90;;
261;SDS011;114;48.260;10.988;2022-07-05T01:11:09;6.37;;;4.30;;
261;SDS011;114;48.260;10.988;2022-07-05T01:13:37;8.73;;;3.97;;
261;SDS011;114;48.260;10.988;2022-07-05T01:16:03;8.93;;;4.07;;
261;SDS011;114;48.260;10.988;2022-07-05T01:18:30;9.27;;;4.00;;
261;SDS011;114;48.260;10.988;2022-07-05T01:20:58;15.33;;;3.70;;
261;SDS011;114;48.260;10.988;2022-07-05T01:23:32;11.97;;;3.70;;
261;SDS011;114;48.260;10.988;2022-07-05T01:26:00;15.07;;;4.87;;
261;SDS011;114;48.260;10.988;2022-07-05T01:28:29;7.23;;;4.57;;
261;SDS011;114;48.260;10.988;2022-07-05T01:31:00;10.33;;;4.10;;
261;SDS011;114;48.260;10.988;2022-07-05T01:33:29;7.23;;;3.83;;
261;SDS011;114;48.260;10.988;2022-07-05T01:35:56;4.37;;;3.27;;
261;SDS011;114;48.260;10.988;2022-07-05T01:38:22;4.50;;;4.10;;
261;SDS011;114;48.260;10.988;2022-07-05T01:40:50;8.60;;;5.37;;
261;SDS011;114;48.260;10.988;2022-07-05T01:43:20;8.37;;;4.23;;
261;SDS011;114;48.260;10.988;2022-07-05T01:45:46;8.27;;;3.63;;
261;SDS011;114;48.260;10.988;2022-07-05T01:48:14;11.63;;;3.67;;
261;SDS011;114;48.260;10.988;2022-07-05T01:50:53;5.33;;;4.73;;
261;SDS011;114;48.260;10.988;2022-07-05T01:53:23;9.60;;;3.73;;
261;SDS011;114;48.260;10.988;2022-07-05T01:55:52;12.83;;;5.00;;
261;SDS011;114;48.260;10.988;2022-07-05T01:58:18;7.90;;;4.00;;
261;SDS011;114;48.260;10.988;2022-07-05T02:00:48;19.57;;;5.13;;
261;SDS011;114;48.260;10.988;2022-07-05T02:03:15;14.20;;;4.43;;
261;SDS011;114;48.260;10.988;2022-07-05T02:05:42;7.40;;;4.27;;
261;SDS011;114;48.260;10.988;2022-07-05T02:08:08;17.33;;;4.10;;
261;SDS011;114;48.260;10.988;2022-07-05T02:10:34;18.23;;;4.40;;
261;SDS011;114;48.260;10.988;2022-07-05T02:13:01;5.70;;;4.00;;
261;SDS011;114;48.260;10.988;2022-07-05T02:15:29;17.53;;;4.40;;
261;SDS011;114;48.260;10.988;2022-07-05T02:18:06;20.07;;;4.00;;
261;SDS011;114;48.260;10.988;2022-07-05T02:20:33;12.33;;;4.40;;
261;SDS011;114;48.260;10.988;2022-07-05T02:23:00;14.40;;;4.37;;
261;SDS011;114;48.260;10.988;2022-07-05T02:25:26;10.30;;;4.70;;
261;SDS011;114;48.260;10.988;2022-07-05T02:27:52;9.97;;;3.67;;
261;SDS011;114;48.260;10.988;2022-07-05T02:30:18;16.17;;;3.80;;
261;SDS011;114;48.260;10.988;2022-07-05T02:32:44;9.80;;;4.07;;
261;SDS011;114;48.260;10.988;2022-07-05T02:35:10;15.53;;;3.93;;
261;SDS011;114;48.260;10.988;2022-07-05T02:37:39;12.20;;;4.13;;
261;SDS011;114;48.260;10.988;2022-07-05T02:40:07;4.87;;;3.87;;
261;SDS011;114;48.260;10.988;2022-07-05T02:42:35;11.50;;;4.10;;
261;SDS011;114;48.260;10.988;2022-07-05T02:45:02;14.17;;;4.10;;
261;SDS011;114;48.260;10.988;2022-07-05T02:47:31;10.17;;;3.93;;
261;SDS011;114;48.260;10.988;2022-07-05T02:49:58;12.13;;;3.90;;
261;SDS011;114;48.260;10.988;2022-07-05T02:52:27;20.63;;;3.80;;
261;SDS011;114;48.260;10.988;2022-07-05T02:54:53;6.73;;;3.40;;
261;SDS011;114;48.260;10.988;2022-07-05T02:57:19;13.30;;;4.40;;
261;SDS011;114;48.260;10.988;2022-07-05T02:59:44;13.30;;;4.10;;
261;SDS011;114;48.260;10.988;2022-07-05T03:02:10;10.00;;;3.97;;
261;SDS011;114;48.260;10.988;2022-07-05T03:04:36;10.17;;;3.83;;
261;SDS011;114;48.260;10.988;2022-07-05T03:07:01;20.63;;;4.20;;
261;SDS011;114;48.260;10.988;2022-07-05T03:09:27;13.80;;;4.07;;
261;SDS011;114;48.260;10.988;2022-07-05T03:11:53;15.60;;;4.70;;
261;SDS011;114;48.260;10.988;2022-07-05T03:14:18;15.67;;;5.10;;
261;SDS011;114;48.260;10.988;2022-07-05T03:16:45;23.63;;;5.07;;
261;SDS011;114;48.260;10.988;2022-07-05T03:19:11;13.83;;;5.17;;
261;SDS011;114;48.260;10.988;2022-07-05T03:21:36;9.27;;;4.17;;
261;SDS011;114;48.260;10.988;2022-07-05T03:24:02;12.73;;;4.30;;
261;SDS011;114;48.260;10.988;2022-07-05T03:26:28;4.83;;;4.40;;
261;SDS011;114;48.260;10.988;2022-07-05T03:28:54;5.50;;;4.30;;
261;SDS011;114;48.260;10.988;2022-07-05T03:31:19;13.77;;;4.63;;
261;SDS011;114;48.260;10.988;2022-07-05T03:33:45;11.20;;;4.53;;
261;SDS011;114;48.260;10.988;2022-07-05T03:36:11;13.27;;;4.30;;
261;SDS011;114;48.260;10.988;2022-07-05T03:38:37;15.37;;;4.03;;
261;SDS011;114;48.260;10.988;2022-07-05T03:41:03;12.90;;;4.60;;
261;SDS011;114;48.260;10.988;2022-07-05T03:43:28;16.93;;;4.23;;
261;SDS011;114;48.260;10.988;2022-07-05T03:45:54;14.37;;;4.23;;
261;SDS011;114;48.260;10.988;2022-07-05T03:48:20;16.67;;;4.83;;
261;SDS011;114;48.260;10.988;2022-07-05T03:50:46;10.57;;;4.30;;
261;SDS011;114;48.260;10.988;2022-07-05T03:53:12;9.13;;;4.20;;
261;SDS011;114;48.260;10.988;2022-07-05T03:55:38;4.40;;;4.00;;
261;SDS011;114;48.260;10.988;2022-07-05T03:58:05;13.40;;;4.40;;
261;SDS011;114;48.260;10.988;2022-07-05T04:00:31;13.33;;;4.83;;
261;SDS011;114;48.260;10.988;2022-07-05T04:02:57;14.87;;;4.97;;
261;SDS011;114;48.260;10.988;2022-07-05T04:05:23;14.00;;;4.67;;
261;SDS011;114;48.260;10.988;2022-07-05T04:07:49;13.73;;;5.20;;
261;SDS011;114;48.260;10.988;2022-07-05T04:10:20;17.07;;;5.70;;
261;SDS011;114;48.260;10.988;2022-07-05T04:12:46;14.90;;;5.67;;
261;SDS011;114;48.260;10.988;2022-07-05T04:15:12;11.83;;;5.73;;
261;SDS011;114;48.260;10.988;2022-07-05T04:17:48;13.90;;;5.30;;
261;SDS011;114;48.260;10.988;2022-07-05T04:20:15;10.00;;;5.90;;
261;SDS011;114;48.260;10.988;2022-07-05T04:22:41;12.87;;;6.33;;
261;SDS011;114;48.260;10.988;2022-07-05T04:25:07;13.63;;;6.10;;
261;SDS011;114;48.260;10.988;2022-07-05T04:27:45;14.20;;;5.90;;
261;SDS011;114;48.260;10.988;2022-07-05T04:30:13;21.27;;;6.50;;
261;SDS011;114;48.260;10.988;2022-07-05T04:32:39;13.83;;;6.90;;
261;SDS011;114;48.260;10.988;2022-07-05T04:35:06;15.47;;;7.40;;
261;SDS011;114;48.260;10.988;2022-07-05T04:37:32;14.87;;;6.50;;
261;SDS011;114;48.260;10.988;2022-07-05T04:39:58;13.87;;;6.90;;
261;SDS011;114;48.260;10.988;2022-07-05T04:42:24;20.53;;;6.23;;
261;SDS011;114;48.260;10.988;2022-07-05T04:44:49;11.60;;;5.80;;
261;SDS011;114;48.260;10.988;2022-07-05T04:47:15;14.53;;;7.10;;
261;SDS011;114;48.260;10.988;2022-07-05T04:49:41;12.67;;;7.20;;
261;SDS011;114;48.260;10.988;2022-07-05T04:52:07;9.40;;;7.47;;
261;SDS011;114;48.260;10.988;2022-07-05T04:54:33;25.13;;;8.00;;
261;SDS011;114;48.260;10.988;2022-07-05T04:57:03;21.47;;;8.60;;
261;SDS011;114;48.260;10.988;2022-07-05T04:59:32;11.17;;;7.43;;
261;SDS011;114;48.260;10.988;2022-07-05T05:01:58;14.60;;;8.30;;
261;SDS011;114;48.260;10.988;2022-07-05T05:04:23;11.20;;;7.70;;
261;SDS011;114;48.260;10.988;2022-07-05T05:06:49;20.77;;;8.37;;
261;SDS011;114;48.260;10.988;2022-07-05T05:09:15;13.47;;;8.23;;
261;SDS011;114;48.260;10.988;2022-07-05T05:11:40;10.17;;;8.30;;
261;SDS011;114;48.260;10.988;2022-07-05T05:14:06;11.93;;;8.47;;
261;SDS011;114;48.260;10.988;2022-07-05T05:16:32;8.07;;;7.00;;
261;SDS011;114;48.260;10.988;2022-07-05T05:18:57;13.60;;;7.60;;
261;SDS011;114;48.260;10.988;2022-07-05T05:21:23;12.80;;;8.13;;
261;SDS011;114;48.260;10.988;2022-07-05T05:23:49;12.43;;;6.87;;
261;SDS011;114;48.260;10.988;2022-07-05T05:26:14;11.23;;;6.47;;
261;SDS011;114;48.260;10.988;2022-07-05T05:28:40;6.93;;;6.33;;
261;SDS011;114;48.260;10.988;2022-07-05T05:31:06;7.90;;;6.27;;
261;SDS011;114;48.260;10.988;2022-07-05T05:33:32;12.87;;;6.40;;
261;SDS011;114;48.260;10.988;2022-07-05T05:35:58;6.10;;;5.60;;
261;SDS011;114;48.260;10.988;2022-07-05T05:38:24;5.90;;;5.37;;
261;SDS011;114;48.260;10.988;2022-07-05T05:40:49;11.00;;;5.30;;
261;SDS011;114;48.260;10.988;2022-07-05T05:43:15;9.17;;;6.00;;
261;SDS011;114;48.260;10.988;2022-07-05T05:45:41;9.67;;;5.47;;
261;SDS011;114;48.260;10.988;2022-07-05T05:48:06;15.00;;;4.90;;
261;SDS011;114;48.260;10.988;2022-07-05T05:50:33;5.67;;;4.20;;
261;SDS011;114;48.260;10.988;2022-07-05T05:53:00;15.13;;;5.57;;
261;SDS011;114;48.260;10.988;2022-07-05T05:55:26;6.30;;;4.40;;
261;SDS011;114;48.260;10.988;2022-07-05T05:57:54;6.37;;;4.20;;
261;SDS011;114;48.260;10.988;2022-07-05T06:00:20;5.87;;;4.20;;
261;SDS011;114;48.260;10.988;2022-07-05T06:02:47;11.07;;;4.67;;
261;SDS011;114;48.260;10.988;2022-07-05T06:05:14;3.40;;;3.10;;
261;SDS011;114;48.260;10.988;2022-07-05T06:07:44;9.70;;;4.03;;
261;SDS011;114;48.260;10.988;2022-07-05T06:10:10;5.67;;;3.73;;
261;SDS011;114;48.260;10.988;2022-07-05T06:12:35;5.20;;;2.80;;
261;SDS011;114;48.260;10.988;2022-07-05T06:15:01;5.10;;;2.60;;
261;SDS011;114;48.260;10.988;2022-07-05T06:17:27;5.87;;;3.00;;
261;SDS011;114;48.260;10.988;2022-07-05T06:19:53;3.80;;;2.50;;
261;SDS011;114;48.260;10.988;2022-07-05T06:22:18;3.67;;;2.40;;
261;SDS011;114;48.260;10.988;2022-07-05T06:24:47;3.27;;;2.60;;
261;SDS011;114;48.260;10.988;2022-07-05T06:27:12;4.20;;;2.47;;
261;SDS011;114;48.260;10.988;2022-07-05T06:29:38;5.00;;;2.10;;
261;SDS011;114;48.260;10.988;2022-07-05T06:32:04;5.40;;;2.40;;
261;SDS011;114;48.260;10.988;2022-07-05T06:34:30;15.30;;;2.57;;
261;SDS011;114;48.260;10.988;2022-07-05T06:36:55;4.23;;;2.00;;
261;SDS011;114;48.260;10.988;2022-07-05T06:39:21;4.20;;;2.10;;
261;SDS011;114;48.260;10.988;2022-07-05T06:41:47;4.90;;;1.30;;
261;SDS011;114;48.260;10.988;2022-07-05T06:44:13;3.23;;;2.10;;
261;SDS011;114;48.260;10.988;2022-07-05T06:46:38;4.23;;;2.40;;
261;SDS011;114;48.260;10.988;2022-07-05T06:49:04;10.90;;;1.80;;
261;SDS011;114;48.260;10.988;2022-07-05T06:51:30;3.37;;;1.90;;
261;SDS011;114;48.260;10.988;2022-07-05T06:53:55;2.80;;;1.60;;
261;SDS011;114;48.260;10.988;2022-07-05T06:56:21;2.53;;;2.00;;
261;SDS011;114;48.260;10.988;2022-07-05T06:58:47;7.90;;;1.90;;
261;SDS011;114;48.260;10.988;2022-07-05T07:01:13;4.63;;;1.83;;
261;SDS011;114;48.260;10.988;2022-07-05T07:03:38;1.67;;;1.57;;
261;SDS011;114;48.260;10.988;2022-07-05T07:06:04;7.87;;;1.70;;
261;SDS011;114;48.260;10.988;2022-07-05T07:08:30;4.33;;;1.87;;
261;SDS011;114;48.260;10.988;2022-07-05T07:11:15;3.73;;;1.57;;
261;SDS011;114;48.260;10.988;2022-07-05T07:13:40;2.27;;;1.30;;
261;SDS011;114;48.260;10.988;2022-07-05T07:16:06;3.37;;;1.80;;
261;SDS011;114;48.260;10.988;2022-07-05T07:18:32;3.13;;;2.03;;
261;SDS011;114;48.260;10.988;2022-07-05T07:20:59;2.70;;;1.50;;
261;SDS011;114;48.260;10.988;2022-07-05T07:23:25;2.83;;;1.70;;
261;SDS011;114;48.260;10.988;2022-07-05T07:25:51;6.50;;;1.80;;
261;SDS011;114;48.260;10.988;2022-07-05T07:28:17;4.03;;;2.07;;
261;SDS011;114;48.260;10.988;2022-07-05T07:30:42;3.63;;;1.50;;
261;SDS011;114;48.260;10.988;2022-07-05T07:33:08;4.40;;;1.60;;
261;SDS011;114;48.260;10.988;2022-07-05T07:35:34;1.67;;;1.40;;
261;SDS011;114;48.260;10.988;2022-07-05T07:38:01;2.00;;;1.37;;
261;SDS011;114;48.260;10.988;2022-07-05T07:40:27;3.70;;;1.80;;
261;SDS011;114;48.260;10.988;2022-07-05T07:42:53;7.13;;;2.00;;
261;SDS011;114;48.260;10.988;2022-07-05T07:45:21;3.10;;;1.30;;
261;SDS011;114;48.260;10.988;2022-07-05T07:47:47;5.37;;;1.30;;
261;SDS011;114;48.260;10.988;2022-07-05T07:50:13;12.50;;;1.90;;
261;SDS011;114;48.260;10.988;2022-07-05T07:52:39;12.43;;;1.40;;
261;SDS011;114;48.260;10.988;2022-07-05T07:55:05;1.93;;;1.30;;
261;SDS011;114;48.260;10.988;2022-07-05T07:57:32;2.40;;;1.37;;
261;SDS011;114;48.260;10.988;2022-07-05T08:00:02;3.97;;;1.60;;
261;SDS011;114;48.260;10.988;2022-07-05T08:02:29;3.40;;;1.37;;
261;SDS011;114;48.260;10.988;2022-07-05T08:04:56;5.13;;;1.20;;
261;SDS011;114;48.260;10.988;2022-07-05T08:07:23;3.93;;;1.53;;
261;SDS011;114;48.260;10.988;2022-07-05T08:09:50;3.17;;;1.00;;
261;SDS011;114;48.260;10.988;2022-07-05T08:12:18;9.80;;;1.23;;
261;SDS011;114;48.260;10.988;2022-07-05T08:14:44;2.30;;;1.50;;
261;SDS011;114;48.260;10.988;2022-07-05T08:17:11;5.07;;;1.50;;
261;SDS011;114;48.260;10.988;2022-07-05T08:19:38;2.10;;;1.13;;
261;SDS011;114;48.260;10.988;2022-07-05T08:22:22;6.00;;;1.20;;
261;SDS011;114;48.260;10.988;2022-07-05T08:24:49;2.00;;;1.10;;
261;SDS011;114;48.260;10.988;2022-07-05T08:27:15;3.97;;;0.90;;
261;SDS011;114;48.260;10.988;2022-07-05T08:29:41;4.53;;;1.60;;
261;SDS011;114;48.260;10.988;2022-07-05T08:32:08;3.10;;;1.10;;
261;SDS011;114;48.260;10.988;2022-07-05T08:34:34;2.20;;;1.43;;
261;SDS011;114;48.260;10.988;2022-07-05T08:37:01;1.53;;;1.00;;
261;SDS011;114;48.260;10.988;2022-07-05T08:39:27;5.13;;;1.13;;
261;SDS011;114;48.260;10.988;2022-07-05T08:41:54;2.40;;;1.20;;
261;SDS011;114;48.260;10.988;2022-07-05T08:44:23;2.33;;;1.00;;
261;SDS011;114;48.260;10.988;2022-07-05T08:46:51;3.93;;;0.70;;
261;SDS011;114;48.260;10.988;2022-07-05T08:49:25;2.50;;;1.20;;
261;SDS011;114;48.260;10.988;2022-07-05T08:51:52;4.03;;;1.30;;
261;SDS011;114;48.260;10.988;2022-07-05T08:54:20;5.27;;;1.17;;
261;SDS011;114;48.260;10.988;2022-07-05T08:56:47;1.33;;;1.23;;
261;SDS011;114;48.260;10.988;2022-07-05T08:59:13;7.27;;;0.90;;
261;SDS011;114;48.260;10.988;2022-07-05T09:01:39;5.10;;;1.10;;
261;SDS011;114;48.260;10.988;2022-07-05T09:04:05;6.00;;;1.10;;
261;SDS011;114;48.260;10.988;2022-07-05T09:06:36;4.47;;;1.20;;
261;SDS011;114;48.260;10.988;2022-07-05T09:09:04;2.20;;;1.30;;
261;SDS011;114;48.260;10.988;2022-07-05T09:11:34;11.20;;;1.07;;
261;SDS011;114;48.260;10.988;2022-07-05T09:14:02;6.87;;;1.03;;
261;SDS011;114;48.260;10.988;2022-07-05T09:16:32;3.80;;;1.20;;
261;SDS011;114;48.260;10.988;2022-07-05T09:19:07;2.70;;;1.27;;
261;SDS011;114;48.260;10.988;2022-07-05T09:21:34;1.20;;;1.10;;
261;SDS011;114;48.260;10.988;2022-07-05T09:26:34;2.20;;;1.03;;
261;SDS011;114;48.260;10.988;2022-07-05T09:29:05;6.73;;;1.10;;
261;SDS011;114;48.260;10.988;2022-07-05T09:31:38;2.17;;;0.77;;
261;SDS011;114;48.260;10.988;2022-07-05T09:34:07;4.00;;;1.10;;
261;SDS011;114;48.260;10.988;2022-07-05T09:36:53;4.70;;;0.90;;
261;SDS011;114;48.260;10.988;2022-07-05T09:42:08;5.40;;;0.97;;
261;SDS011;114;48.260;10.988;2022-07-05T09:44:53;1.93;;;1.13;;
261;SDS011;114;48.260;10.988;2022-07-05T09:47:20;1.00;;;0.90;;
261;SDS011;114;48.260;10.988;2022-07-05T09:49:49;1.73;;;0.80;;
261;SDS011;114;48.260;10.988;2022-07-05T09:52:26;1.07;;;0.93;;
261;SDS011;114;48.260;10.988;2022-07-05T09:55:07;1.67;;;1.23;;
261;SDS011;114;48.260;10.988;2022-07-05T09:57:34;1.40;;;0.70;;
261;SDS011;114;48.260;10.988;2022-07-05T10:00:06;0.60;;;0.50;;
261;SDS011;114;48.260;10.988;2022-07-05T10:02:37;3.23;;;0.87;;
261;SDS011;114;48.260;10.988;2022-07-05T10:05:13;1.27;;;1.07;;
261;SDS011;114;48.260;10.988;2022-07-05T10:07:44;1.57;;;0.90;;
261;SDS011;114;48.260;10.988;2022-07-05T10:10:15;3.90;;;1.07;;
261;SDS011;114;48.260;10.988;2022-07-05T10:12:45;1.30;;;0.70;;
261;SDS011;114;48.260;10.988;2022-07-05T10:15:14;3.03;;;1.57;;
261;SDS011;114;48.260;10.988;2022-07-05T10:17:54;1.27;;;0.70;;
261;SDS011;114;48.260;10.988;2022-07-05T10:20:34;1.13;;;0.80;;
261;SDS011;114;48.260;10.988;2022-07-05T10:25:44;1.63;;;0.90;;
261;SDS011;114;48.260;10.988;2022-07-05T10:28:15;2.60;;;0.90;;
261;SDS011;114;48.260;10.988;2022-07-05T10:30:43;2.40;;;0.70;;
261;SDS011;114;48.260;10.988;2022-07-05T10:33:11;1.33;;;0.73;;
261;SDS011;114;48.260;10.988;2022-07-05T10:35:42;1.20;;;0.80;;
261;SDS011;114;48.260;10.988;2022-07-05T10:38:09;5.53;;;0.57;;
261;SDS011;114;48.260;10.988;2022-07-05T10:40:36;2.13;;;0.73;;
261;SDS011;114;48.260;10.988;2022-07-05T10:43:03;6.30;;;0.97;;
261;SDS011;114;48.260;10.988;2022-07-05T10:45:32;1.40;;;0.60;;
261;SDS011;114;48.260;10.988;2022-07-05T10:58:37;1.57;;;0.70;;
261;SDS011;114;48.260;10.988;2022-07-05T11:06:29;2.73;;;0.90;;
261;SDS011;114;48.260;10.988;2022-07-05T11:11:32;0.60;;;0.60;;
261;SDS011;114;48.260;10.988;2022-07-05T11:14:00;2.23;;;0.83;;
261;SDS011;114;48.260;10.988;2022-07-05T11:16:29;1.67;;;0.80;;
261;SDS011;114;48.260;10.988;2022-07-05T11:19:06;4.83;;;0.70;;
261;SDS011;114;48.260;10.988;2022-07-05T11:21:34;1.57;;;0.83;;
261;SDS011;114;48.260;10.988;2022-07-05T11:24:21;1.73;;;0.77;;
261;SDS011;114;48.260;10.988;2022-07-05T11:26:52;1.10;;;0.50;;
261;SDS011;114;48.260;10.988;2022-07-05T11:32:11;3.23;;;0.87;;
261;SDS011;114;48.260;10.988;2022-07-05T11:34:42;1.07;;;0.80;;
261;SDS011;114;48.260;10.988;2022-07-05T11:37:19;0.88;;;0.70;;
261;SDS011;114;48.260;10.988;2022-07-05T11:40:34;6.18;;;0.80;;
261;SDS011;114;48.260;10.988;2022-07-05T11:42:35;4.00;;;0.70;;
261;SDS011;114;48.260;10.988;2022-07-05T11:45:17;0.50;;;0.50;;
261;SDS011;114;48.260;10.988;2022-07-05T11:47:43;2.13;;;0.70;;
261;SDS011;114;48.260;10.988;2022-07-05T11:50:10;3.15;;;0.70;;
261;SDS011;114;48.260;10.988;2022-07-05T11:52:37;1.42;;;0.65;;
261;SDS011;114;48.260;10.988;2022-07-05T11:55:08;1.80;;;0.65;;
261;SDS011;114;48.260;10.988;2022-07-05T11:57:35;1.20;;;0.60;;
261;SDS011;114;48.260;10.988;2022-07-05T12:00:02;2.67;;;0.60;;
261;SDS011;114;48.260;10.988;2022-07-05T12:02:29;0.80;;;0.60;;
261;SDS011;114;48.260;10.988;2022-07-05T12:04:55;1.08;;;0.50;;
261;SDS011;114;48.260;10.988;2022-07-05T12:07:32;1.25;;;0.93;;
261;SDS011;114;48.260;10.988;2022-07-05T12:10:00;6.57;;;0.52;;
261;SDS011;114;48.260;10.988;2022-07-05T12:12:45;1.70;;;0.68;;
261;SDS011;114;48.260;10.988;2022-07-05T12:15:13;1.50;;;0.82;;
261;SDS011;114;48.260;10.988;2022-07-05T12:17:42;3.10;;;0.68;;
261;SDS011;114;48.260;10.988;2022-07-05T12:20:10;0.55;;;0.50;;
261;SDS011;114;48.260;10.988;2022-07-05T12:22:46;3.08;;;0.88;;
261;SDS011;114;48.260;10.988;2022-07-05T12:25:17;6.28;;;0.88;;
261;SDS011;114;48.260;10.988;2022-07-05T12:27:45;0.88;;;0.60;;
261;SDS011;114;48.260;10.988;2022-07-05T12:30:16;1.45;;;0.70;;
261;SDS011;114;48.260;10.988;2022-07-05T12:35:29;0.98;;;0.50;;
261;SDS011;114;48.260;10.988;2022-07-05T12:40:29;3.33;;;0.68;;
261;SDS011;114;48.260;10.988;2022-07-05T12:43:02;2.58;;;0.70;;
261;SDS011;114;48.260;10.988;2022-07-05T12:45:32;7.30;;;0.52;;
261;SDS011;114;48.260;10.988;2022-07-05T12:48:00;7.25;;;0.50;;
261;SDS011;114;48.260;10.988;2022-07-05T12:50:28;5.90;;;0.70;;
261;SDS011;114;48.260;10.988;2022-07-05T12:53:09;5.78;;;0.80;;
261;SDS011;114;48.260;10.988;2022-07-05T12:56:01;7.30;;;0.70;;
261;SDS011;114;48.260;10.988;2022-07-05T12:58:56;4.90;;;0.57;;
261;SDS011;114;48.260;10.988;2022-07-05T13:01:33;1.77;;;0.50;;
261;SDS011;114;48.260;10.988;2022-07-05T13:04:13;6.85;;;0.55;;
261;SDS011;114;48.260;10.988;2022-07-05T13:12:20;2.17;;;0.50;;
261;SDS011;114;48.260;10.988;2022-07-05T13:14:53;4.75;;;0.60;;
261;SDS011;114;48.260;10.988;2022-07-05T13:17:22;7.35;;;0.50;;
261;SDS011;114;48.260;10.988;2022-07-05T13:19:52;0.80;;;0.43;;
261;SDS011;114;48.260;10.988;2022-07-05T13:22:21;7.72;;;0.77;;
261;SDS011;114;48.260;10.988;2022-07-05T13:24:47;0.95;;;0.45;;
261;SDS011;114;48.260;10.988;2022-07-05T13:27:13;1.20;;;0.40;;
261;SDS011;114;48.260;10.988;2022-07-05T13:29:39;0.60;;;0.45;;
261;SDS011;114;48.260;10.988;2022-07-05T13:32:05;1.50;;;0.73;;
261;SDS011;114;48.260;10.988;2022-07-05T13:34:31;4.03;;;0.43;;
261;SDS011;114;48.260;10.988;2022-07-05T13:36:57;1.85;;;0.50;;
261;SDS011;114;48.260;10.988;2022-07-05T13:39:25;0.88;;;0.50;;
261;SDS011;114;48.260;10.988;2022-07-05T13:41:52;2.33;;;0.60;;
261;SDS011;114;48.260;10.988;2022-07-05T13:44:18;1.13;;;0.60;;
261;SDS011;114;48.260;10.988;2022-07-05T13:46:45;1.38;;;0.98;;
261;SDS011;114;48.260;10.988;2022-07-05T13:49:11;0.60;;;0.40;;
261;SDS011;114;48.260;10.988;2022-07-05T13:51:36;1.75;;;0.43;;
261;SDS011;114;48.260;10.988;2022-07-05T13:54:02;0.90;;;0.50;;
261;SDS011;114;48.260;10.988;2022-07-05T13:56:28;1.30;;;0.40;;
261;SDS011;114;48.260;10.988;2022-07-05T13:58:56;1.63;;;0.73;;
261;SDS011;114;48.260;10.988;2022-07-05T14:01:22;3.72;;;0.60;;
261;SDS011;114;48.260;10.988;2022-07-05T14:03:55;9.35;;;0.52;;
261;SDS011;114;48.260;10.988;2022-07-05T14:06:24;1.63;;;0.57;;
261;SDS011;114;48.260;10.988;2022-07-05T14:08:50;3.22;;;0.50;;
261;SDS011;114;48.260;10.988;2022-07-05T14:11:16;3.92;;;0.90;;
261;SDS011;114;48.260;10.988;2022-07-05T14:13:42;1.50;;;0.63;;
261;SDS011;114;48.260;10.988;2022-07-05T14:16:08;2.25;;;0.50;;
261;SDS011;114;48.260;10.988;2022-07-05T14:18:34;1.58;;;0.70;;
261;SDS011;114;48.260;10.988;2022-07-05T14:21:00;1.90;;;0.43;;
261;SDS011;114;48.260;10.988;2022-07-05T14:23:26;0.50;;;0.45;;
261;SDS011;114;48.260;10.988;2022-07-05T14:25:51;4.05;;;0.60;;
261;SDS011;114;48.260;10.988;2022-07-05T14:28:17;3.60;;;0.70;;
261;SDS011;114;48.260;10.988;2022-07-05T14:30:44;2.15;;;0.63;;
261;SDS011;114;48.260;10.988;2022-07-05T14:33:12;1.60;;;0.60;;
261;SDS011;114;48.260;10.988;2022-07-05T14:35:39;1.30;;;0.40;;
261;SDS011;114;48.260;10.988;2022-07-05T14:38:06;1.35;;;0.60;;
261;SDS011;114;48.260;10.988;2022-07-05T14:40:32;6.47;;;0.40;;
261;SDS011;114;48.260;10.988;2022-07-05T14:42:59;1.25;;;0.50;;
261;SDS011;114;48.260;10.988;2022-07-05T14:45:26;2.88;;;0.50;;
261;SDS011;114;48.260;10.988;2022-07-05T14:47:52;0.82;;;0.50;;
261;SDS011;114;48.260;10.988;2022-07-05T14:50:19;5.95;;;0.50;;
261;SDS011;114;48.260;10.988;2022-07-05T14:52:45;1.25;;;0.50;;
261;SDS011;114;48.260;10.988;2022-07-05T14:55:12;1.92;;;0.50;;
261;SDS011;114;48.260;10.988;2022-07-05T14:57:38;4.35;;;0.52;;
261;SDS011;114;48.260;10.988;2022-07-05T15:00:07;1.73;;;0.98;;
261;SDS011;114;48.260;10.988;2022-07-05T15:02:40;1.42;;;0.40;;
261;SDS011;114;48.260;10.988;2022-07-05T15:05:07;0.40;;;0.40;;
261;SDS011;114;48.260;10.988;2022-07-05T15:07:38;0.98;;;0.40;;
261;SDS011;114;48.260;10.988;2022-07-05T15:10:05;1.77;;;0.57;;
261;SDS011;114;48.260;10.988;2022-07-05T15:12:32;0.73;;;0.40;;
261;SDS011;114;48.260;10.988;2022-07-05T15:14:58;0.70;;;0.40;;
261;SDS011;114;48.260;10.988;2022-07-05T15:17:24;0.45;;;0.40;;
261;SDS011;114;48.260;10.988;2022-07-05T15:19:49;4.07;;;0.70;;
261;SDS011;114;48.260;10.988;2022-07-05T15:22:15;0.77;;;0.65;;
261;SDS011;114;48.260;10.988;2022-07-05T15:24:41;4.20;;;0.88;;
261;SDS011;114;48.260;10.988;2022-07-05T15:27:07;2.83;;;0.52;;
261;SDS011;114;48.260;10.988;2022-07-05T15:29:35;1.77;;;0.60;;
261;SDS011;114;48.260;10.988;2022-07-05T15:32:02;1.08;;;0.30;;
261;SDS011;114;48.260;10.988;2022-07-05T15:34:28;0.77;;;0.40;;
261;SDS011;114;48.260;10.988;2022-07-05T15:36:54;1.38;;;0.60;;
261;SDS011;114;48.260;10.988;2022-07-05T15:39:19;0.93;;;0.73;;
261;SDS011;114;48.260;10.988;2022-07-05T15:41:47;3.80;;;0.85;;
261;SDS011;114;48.260;10.988;2022-07-05T15:44:13;2.15;;;0.43;;
261;SDS011;114;48.260;10.988;2022-07-05T15:46:42;5.00;;;0.52;;
261;SDS011;114;48.260;10.988;2022-07-05T15:49:28;0.90;;;0.60;;
261;SDS011;114;48.260;10.988;2022-07-05T15:51:55;0.50;;;0.40;;
261;SDS011;114;48.260;10.988;2022-07-05T15:54:22;1.58;;;0.50;;
261;SDS011;114;48.260;10.988;2022-07-05T15:56:48;4.22;;;0.60;;
261;SDS011;114;48.260;10.988;2022-07-05T15:59:14;0.50;;;0.40;;
261;SDS011;114;48.260;10.988;2022-07-05T16:01:39;0.65;;;0.55;;
261;SDS011;114;48.260;10.988;2022-07-05T16:04:05;4.13;;;0.60;;
261;SDS011;114;48.260;10.988;2022-07-05T16:06:31;6.70;;;0.50;;
261;SDS011;114;48.260;10.988;2022-07-05T16:08:58;4.68;;;1.02;;
261;SDS011;114;48.260;10.988;2022-07-05T16:11:24;6.85;;;0.68;;
261;SDS011;114;48.260;10.988;2022-07-05T16:13:49;3.05;;;0.68;;